createdAt,value
2023-03-04T00:01:12.673Z,104.35
2023-03-04T00:03:42.089Z,107.58
2023-03-04T00:06:11.601Z,101.65
2023-03-04T00:08:41.105Z,97.33
2023-03-04T00:11:10.534Z,93.07
2023-03-04T00:13:39.957Z,92.70
2023-03-04T00:16:09.757Z,93.22
2023-03-04T00:18:39.297Z,87.25
2023-03-04T00:21:08.974Z,88.10
2023-03-04T00:23:38.852Z,87.00
2023-03-04T00:26:10.159Z,81.92
2023-03-04T00:28:42.124Z,88.57
2023-03-04T00:31:13.390Z,95.28
2023-03-04T00:33:45.005Z,101.38
2023-03-04T00:36:14.439Z,85.07
2023-03-04T00:38:43.933Z,83.75
2023-03-04T00:41:14.382Z,87.65
2023-03-04T00:43:43.784Z,83.58
2023-03-04T00:46:14.276Z,89.52
2023-03-04T00:48:43.752Z,79.10
2023-03-04T00:51:13.264Z,85.57
2023-03-04T00:53:43.373Z,94.75
2023-03-04T00:56:13.064Z,89.30
2023-03-04T00:58:42.549Z,81.63
2023-03-04T01:01:12.556Z,81.70
2023-03-04T01:03:43.069Z,85.25
2023-03-04T01:06:12.722Z,80.12
2023-03-04T01:08:42.222Z,84.25
2023-03-04T01:11:11.897Z,85.47
2023-03-04T01:13:42.541Z,82.80
2023-03-04T01:16:13.170Z,87.40
2023-03-04T01:18:42.830Z,94.00
2023-03-04T01:21:12.253Z,82.12
2023-03-04T01:23:41.741Z,97.75
2023-03-04T01:26:11.276Z,85.75
2023-03-04T01:28:40.705Z,83.50
2023-03-04T01:31:10.286Z,84.62
2023-03-04T01:33:39.973Z,88.37
2023-03-04T01:36:09.484Z,78.78
2023-03-04T01:38:39.016Z,81.72
2023-03-04T01:41:11.122Z,85.83
2023-03-04T01:43:41.157Z,75.57
2023-03-04T01:46:15.391Z,84.17
2023-03-04T01:48:45.699Z,82.95
2023-03-04T01:51:19.937Z,84.37
2023-03-04T01:53:53.559Z,79.67
2023-03-04T01:56:38.073Z,81.50
2023-03-04T01:59:26.098Z,83.15
2023-03-04T02:01:58.671Z,83.47
2023-03-04T02:04:31.468Z,82.17
2023-03-04T02:09:34.460Z,74.82
2023-03-04T02:12:05.729Z,78.95
2023-03-04T02:14:35.869Z,79.47
2023-03-04T02:17:08.111Z,82.00
2023-03-04T02:19:40.752Z,81.12
2023-03-04T02:22:10.552Z,81.40
2023-03-04T02:24:46.524Z,74.85
2023-03-04T02:27:16.176Z,79.65
2023-03-04T02:29:45.733Z,75.87
2023-03-04T02:32:18.158Z,91.85
2023-03-04T02:34:50.654Z,88.67
2023-03-04T02:37:22.611Z,78.80
2023-03-04T02:39:53.806Z,86.30
2023-03-04T02:42:23.936Z,83.12
2023-03-04T02:45:02.190Z,81.57
2023-03-04T02:47:31.730Z,75.62
2023-03-04T02:50:01.229Z,81.95
2023-03-04T02:52:30.734Z,79.42
2023-03-04T02:55:00.323Z,79.17
2023-03-04T02:57:29.902Z,78.60
2023-03-04T02:59:59.419Z,78.57
2023-03-04T03:02:30.007Z,91.63
2023-03-04T03:04:59.626Z,86.08
2023-03-04T03:07:29.211Z,82.33
2023-03-04T03:09:58.791Z,73.35
2023-03-04T03:12:28.687Z,76.57
2023-03-04T03:14:58.110Z,75.08
2023-03-04T03:17:28.041Z,75.17
2023-03-04T03:19:57.466Z,77.90
2023-03-04T03:22:28.363Z,82.57
2023-03-04T03:25:39.573Z,81.28
2023-03-04T03:28:09.078Z,79.53
2023-03-04T03:30:40.629Z,78.95
2023-03-04T03:33:10.639Z,83.00
2023-03-04T03:35:41.124Z,78.52
2023-03-04T03:38:10.572Z,79.42
2023-03-04T03:40:40.130Z,78.65
2023-03-04T03:43:10.801Z,76.47
2023-03-04T03:45:40.304Z,74.90
2023-03-04T03:48:09.710Z,69.10
2023-03-04T03:50:39.200Z,74.85
2023-03-04T03:53:08.840Z,70.72
2023-03-04T03:55:39.147Z,81.37
2023-03-04T03:58:08.594Z,78.90
2023-03-04T04:00:38.136Z,77.12
2023-03-04T04:03:07.663Z,82.65
2023-03-04T04:05:37.569Z,86.97
2023-03-04T04:08:07.067Z,81.63
2023-03-04T04:10:36.559Z,80.92
2023-03-04T04:13:06.050Z,80.22
2023-03-04T04:15:36.718Z,74.55
2023-03-04T04:18:08.330Z,76.67
2023-03-04T04:20:38.332Z,75.12
2023-03-04T04:23:07.760Z,75.57
2023-03-04T04:25:37.253Z,73.65
2023-03-04T04:28:06.696Z,70.75
2023-03-04T04:30:36.717Z,78.75
2023-03-04T04:33:06.855Z,74.25
2023-03-04T04:35:39.196Z,69.17
2023-03-04T04:38:09.859Z,77.70
2023-03-04T04:40:39.274Z,70.50
2023-03-04T04:43:08.706Z,76.95
2023-03-04T04:45:38.237Z,66.97
2023-03-04T04:48:09.123Z,65.55
2023-03-04T04:50:38.580Z,77.22
2023-03-04T04:53:08.827Z,77.65
2023-03-04T04:55:38.246Z,67.45
2023-03-04T04:58:09.555Z,74.70
2023-03-04T05:00:38.978Z,72.95
2023-03-04T05:03:08.509Z,74.20
2023-03-04T05:05:39.276Z,72.35
2023-03-04T05:08:08.753Z,80.42
2023-03-04T05:10:38.343Z,72.47
2023-03-04T05:13:07.964Z,76.92
2023-03-04T05:15:39.973Z,72.15
2023-03-04T05:18:09.435Z,73.60
2023-03-04T05:20:39.158Z,74.32
2023-03-04T05:23:08.596Z,72.25
2023-03-04T05:25:39.256Z,82.05
2023-03-04T05:28:10.318Z,83.67
2023-03-04T05:30:42.074Z,75.08
2023-03-04T05:33:13.420Z,79.00
2023-03-04T05:35:44.134Z,79.20
2023-03-04T05:38:16.881Z,71.12
2023-03-04T05:40:47.913Z,73.02
2023-03-04T05:43:18.277Z,73.62
2023-03-04T05:45:49.922Z,77.75
2023-03-04T05:48:19.490Z,78.00
2023-03-04T05:50:50.523Z,73.70
2023-03-04T05:53:20.068Z,77.32
2023-03-04T05:55:49.760Z,75.45
2023-03-04T05:58:21.382Z,73.62
2023-03-04T06:00:51.326Z,74.70
2023-03-04T06:03:24.118Z,74.75
2023-03-04T06:08:23.881Z,87.88
2023-03-04T06:10:56.050Z,78.80
2023-03-04T06:13:26.522Z,75.12
2023-03-04T06:16:00.907Z,82.22
2023-03-04T06:18:32.173Z,70.62
2023-03-04T06:21:03.848Z,75.50
2023-03-04T06:23:33.832Z,82.60
2023-03-04T06:26:04.722Z,78.40
2023-03-04T06:28:34.201Z,77.97
2023-03-04T06:31:04.019Z,79.37
2023-03-04T06:33:33.672Z,77.58
2023-03-04T06:36:03.355Z,77.08
2023-03-04T06:38:32.947Z,79.12
2023-03-04T06:41:12.313Z,76.63
2023-03-04T06:43:42.794Z,83.10
2023-03-04T06:46:12.394Z,83.58
2023-03-04T06:48:42.444Z,78.62
2023-03-04T06:51:13.061Z,83.62
2023-03-04T06:53:43.438Z,82.50
2023-03-04T06:56:18.727Z,82.17
2023-03-04T06:58:48.779Z,84.13
2023-03-04T07:01:21.571Z,91.32
2023-03-04T07:06:24.258Z,85.97
2023-03-04T07:08:54.731Z,87.82
2023-03-04T07:11:24.939Z,82.80
2023-03-04T07:13:54.344Z,82.50
2023-03-04T07:16:25.665Z,77.47
2023-03-04T07:18:55.278Z,80.38
2023-03-04T07:21:24.783Z,74.25
2023-03-04T07:23:54.691Z,73.40
2023-03-04T07:26:24.262Z,74.80
2023-03-04T07:28:54.780Z,86.63
2023-03-04T07:31:30.283Z,81.85
2023-03-04T07:34:03.403Z,81.78
2023-03-04T07:36:35.243Z,87.80
2023-03-04T07:39:06.257Z,77.32
2023-03-04T07:41:37.601Z,78.70
2023-03-04T07:44:09.007Z,72.57
2023-03-04T07:46:39.142Z,77.60
2023-03-04T07:49:10.024Z,82.02
2023-03-04T07:51:39.516Z,90.05
2023-03-04T07:54:09.168Z,88.20
2023-03-04T07:56:38.743Z,88.72
2023-03-04T07:59:09.996Z,73.67
2023-03-04T08:01:40.814Z,77.25
2023-03-04T08:04:10.308Z,78.00
2023-03-04T08:06:42.705Z,81.65
2023-03-04T08:09:14.208Z,86.37
2023-03-04T08:11:44.771Z,80.50
2023-03-04T08:14:15.843Z,74.83
2023-03-04T08:16:45.256Z,76.55
2023-03-04T08:19:14.759Z,74.97
2023-03-04T08:21:44.669Z,77.90
2023-03-04T08:24:14.444Z,71.50
2023-03-04T08:26:48.049Z,71.92
2023-03-04T08:29:23.526Z,75.37
2023-03-04T08:31:56.739Z,78.33
2023-03-04T08:34:29.124Z,73.67
2023-03-04T08:36:58.538Z,76.12
2023-03-04T08:39:28.153Z,72.97
2023-03-04T08:41:57.586Z,74.67
2023-03-04T08:44:27.103Z,76.35
2023-03-04T08:46:56.625Z,72.45
2023-03-04T08:49:26.051Z,73.05
2023-03-04T08:51:56.228Z,72.72
2023-03-04T08:54:25.957Z,74.67
2023-03-04T08:56:55.386Z,78.10
2023-03-04T08:59:25.190Z,91.67
2023-03-04T09:01:54.691Z,82.90
2023-03-04T09:04:24.883Z,79.53
2023-03-04T09:06:54.298Z,90.22
2023-03-04T09:09:24.765Z,75.57
2023-03-04T09:11:54.359Z,73.25
2023-03-04T09:14:23.887Z,75.47
2023-03-04T09:16:53.412Z,69.47
2023-03-04T09:19:23.012Z,70.87
2023-03-04T09:21:52.440Z,75.12
2023-03-04T09:24:21.937Z,72.05
2023-03-04T09:26:56.252Z,71.47
2023-03-04T09:29:25.703Z,73.78
2023-03-04T09:31:55.257Z,71.05
2023-03-04T09:34:24.974Z,67.95
2023-03-04T09:36:54.741Z,69.22
2023-03-04T09:39:24.785Z,65.72
2023-03-04T09:41:57.516Z,68.67
2023-03-04T09:44:34.802Z,65.17
2023-03-04T09:47:13.201Z,67.87
2023-03-04T09:49:46.000Z,65.08
2023-03-04T09:52:30.222Z,61.92
2023-03-04T09:55:08.914Z,67.03
2023-03-04T09:57:49.880Z,56.98
2023-03-04T10:00:28.395Z,63.00
2023-03-04T10:03:11.045Z,60.92
2023-03-04T10:06:08.172Z,56.65
2023-03-04T10:08:55.986Z,53.38
2023-03-04T10:11:40.336Z,59.23
2023-03-04T10:14:18.363Z,51.60
2023-03-04T10:16:53.840Z,53.90
2023-03-04T10:19:31.943Z,58.05
2023-03-04T10:22:02.001Z,55.05
2023-03-04T10:24:32.278Z,57.60
2023-03-04T10:27:05.307Z,56.37
2023-03-04T10:32:04.369Z,58.33
2023-03-04T10:34:34.060Z,56.90
2023-03-04T10:37:07.869Z,55.00
2023-03-04T10:39:46.492Z,54.53
2023-03-04T10:42:20.827Z,50.38
2023-03-04T10:44:55.273Z,53.33
2023-03-04T10:47:27.713Z,55.65
2023-03-04T10:50:07.644Z,54.77
2023-03-04T10:52:42.895Z,54.00
2023-03-04T10:55:18.436Z,55.60
2023-03-04T10:57:50.670Z,55.25
2023-03-04T11:00:26.945Z,51.77
2023-03-04T11:03:16.094Z,55.20
2023-03-04T11:05:45.822Z,55.65
2023-03-04T11:08:24.168Z,52.48
2023-03-04T11:10:54.464Z,51.55
2023-03-04T11:13:27.730Z,52.50
2023-03-04T11:16:00.450Z,53.55
2023-03-04T11:18:37.248Z,52.88
2023-03-04T11:21:10.859Z,54.53
2023-03-04T11:24:01.522Z,52.70
2023-03-04T11:26:43.408Z,54.00
2023-03-04T11:29:24.281Z,51.83
2023-03-04T11:31:57.339Z,54.33
2023-03-04T11:34:35.595Z,53.10
2023-03-04T11:37:17.028Z,50.80
2023-03-04T11:40:05.230Z,55.75
2023-03-04T11:42:41.052Z,49.73
2023-03-04T11:45:28.738Z,57.23
2023-03-04T11:47:53.815Z,54.73
2023-03-04T11:50:32.546Z,52.00
2023-03-04T11:53:08.848Z,55.35
2023-03-04T11:55:44.391Z,53.85
2023-03-04T11:58:37.792Z,48.08
2023-03-04T12:04:12.866Z,59.48
2023-03-04T12:06:58.137Z,58.03
2023-03-04T12:09:42.766Z,62.45
2023-03-04T12:12:33.308Z,52.98
2023-03-04T12:15:22.886Z,56.48
2023-03-04T12:18:07.171Z,55.78
2023-03-04T12:20:46.069Z,58.02
2023-03-04T12:23:37.510Z,56.80
2023-03-04T12:26:16.999Z,59.15
2023-03-04T12:28:52.336Z,54.77
2023-03-04T12:31:40.131Z,54.95
2023-03-04T12:34:34.751Z,52.17
2023-03-04T12:37:19.144Z,58.67
2023-03-04T12:40:05.019Z,56.45
2023-03-04T12:42:50.186Z,55.48
2023-03-04T12:45:25.592Z,52.98
2023-03-04T12:48:04.083Z,55.63
2023-03-04T12:50:39.249Z,54.83
2023-03-04T12:53:24.101Z,53.63
2023-03-04T12:55:56.309Z,56.65
2023-03-04T12:58:29.004Z,56.77
2023-03-04T13:01:19.253Z,57.60
2023-03-04T13:04:00.864Z,52.62
2023-03-04T13:06:48.367Z,51.28
2023-03-04T13:09:21.675Z,50.85
2023-03-04T13:11:54.749Z,48.87
2023-03-04T13:14:28.481Z,53.23
2023-03-04T13:17:02.231Z,52.75
2023-03-04T13:20:09.058Z,68.50
2023-03-04T13:22:44.640Z,55.03
2023-03-04T13:25:45.230Z,52.67
2023-03-04T13:28:20.424Z,52.73
2023-03-04T13:30:59.604Z,54.15
2023-03-04T13:33:37.865Z,45.60
2023-03-04T13:36:12.281Z,51.42
2023-03-04T13:38:41.785Z,55.00
2023-03-04T13:41:27.025Z,54.33
2023-03-04T13:43:58.400Z,49.37
2023-03-04T13:46:30.185Z,51.55
2023-03-04T13:49:02.721Z,46.83
2023-03-04T13:51:47.442Z,48.68
2023-03-04T13:54:24.307Z,47.75
2023-03-04T13:57:22.626Z,49.65
2023-03-04T13:59:59.169Z,49.08
2023-03-04T14:02:32.501Z,45.65
2023-03-04T14:05:03.479Z,50.60
2023-03-04T14:07:37.038Z,48.35
2023-03-04T14:10:16.021Z,49.23
2023-03-04T14:12:48.590Z,50.00
2023-03-04T14:15:21.111Z,48.65
2023-03-04T14:20:36.361Z,44.05
2023-03-04T14:23:29.899Z,44.40
2023-03-04T14:28:33.090Z,49.63
2023-03-04T14:31:02.647Z,46.90
2023-03-04T14:33:33.211Z,52.45
2023-03-04T14:36:04.578Z,46.95
2023-03-04T14:38:42.185Z,44.15
2023-03-04T14:41:20.146Z,43.68
2023-03-04T14:44:11.130Z,50.30
2023-03-04T14:47:00.551Z,49.98
2023-03-04T14:49:17.728Z,48.08
2023-03-04T14:51:52.750Z,49.20
2023-03-04T14:54:32.276Z,54.63
2023-03-04T14:57:04.501Z,49.42
2023-03-04T14:59:37.747Z,46.28
2023-03-04T15:02:22.290Z,52.55
2023-03-04T15:04:52.628Z,51.30
2023-03-04T15:07:25.113Z,50.88
2023-03-04T15:09:56.609Z,51.53
2023-03-04T15:12:29.256Z,52.35
2023-03-04T15:15:01.613Z,53.00
2023-03-04T15:17:40.551Z,49.83
2023-03-04T15:20:13.192Z,49.83
2023-03-04T15:22:51.468Z,48.30
2023-03-04T15:25:21.486Z,45.60
2023-03-04T15:27:54.015Z,48.20
2023-03-04T15:30:27.987Z,49.50
2023-03-04T15:33:00.142Z,47.43
2023-03-04T15:35:32.222Z,48.90
2023-03-04T15:38:02.182Z,53.95
2023-03-04T15:40:39.959Z,47.27
2023-03-04T15:43:10.940Z,47.35
2023-03-04T15:45:41.574Z,48.25
2023-03-04T15:48:14.257Z,49.93
2023-03-04T15:50:48.743Z,51.18
2023-03-04T15:53:39.664Z,48.60
2023-03-04T15:56:15.262Z,47.77
2023-03-04T15:58:46.559Z,46.70
2023-03-04T16:01:19.040Z,47.40
2023-03-04T16:03:48.607Z,49.25
2023-03-04T16:06:21.501Z,50.38
2023-03-04T16:08:53.077Z,49.93
2023-03-04T16:11:25.696Z,49.53
2023-03-04T16:13:56.245Z,50.38
2023-03-04T16:16:25.706Z,54.98
2023-03-04T16:18:55.185Z,45.55
2023-03-04T16:21:24.778Z,60.63
2023-03-04T16:23:55.444Z,50.92
2023-03-04T16:26:26.859Z,46.63
2023-03-04T16:28:56.461Z,47.93
2023-03-04T16:31:26.123Z,48.73
2023-03-04T16:33:55.597Z,47.00
2023-03-04T16:36:28.494Z,51.65
2023-03-04T16:39:02.161Z,55.20
2023-03-04T16:41:32.988Z,53.15
2023-03-04T16:44:03.062Z,55.92
2023-03-04T16:46:32.519Z,49.58
2023-03-04T16:49:02.892Z,49.60
2023-03-04T16:51:35.391Z,44.83
2023-03-04T16:54:05.398Z,48.55
2023-03-04T16:56:34.816Z,54.27
2023-03-04T16:59:05.125Z,47.05
2023-03-04T17:01:37.043Z,53.68
2023-03-04T17:04:06.511Z,49.98
2023-03-04T17:06:38.086Z,49.95
2023-03-04T17:09:10.580Z,52.05
2023-03-04T17:14:09.525Z,48.40
2023-03-04T17:16:38.973Z,47.67
2023-03-04T17:19:08.467Z,47.85
2023-03-04T17:21:37.898Z,45.90
2023-03-04T17:24:11.184Z,48.52
2023-03-04T17:26:42.128Z,67.62
2023-03-04T17:29:11.800Z,102.95
2023-03-04T17:31:43.246Z,68.95
2023-03-04T17:34:13.794Z,51.07
2023-03-04T17:36:48.579Z,65.85
2023-03-04T17:39:19.997Z,92.05
2023-03-04T17:41:51.684Z,94.55
2023-03-04T17:44:21.874Z,119.90
2023-03-04T17:46:51.420Z,58.10
2023-03-04T17:49:20.878Z,63.83
2023-03-04T17:51:52.033Z,63.78
2023-03-04T17:54:21.522Z,65.87
2023-03-04T17:56:50.950Z,62.50
2023-03-04T17:59:41.230Z,59.18
2023-03-04T18:02:13.749Z,59.10
2023-03-04T18:04:46.116Z,62.40
2023-03-04T18:07:16.023Z,56.92
2023-03-04T18:09:47.439Z,53.02
2023-03-04T18:12:16.883Z,53.83
2023-03-04T18:14:46.488Z,52.23
2023-03-04T18:17:16.787Z,62.25
2023-03-04T18:19:46.214Z,53.92
2023-03-04T18:22:15.717Z,67.87
2023-03-04T18:24:45.596Z,82.82
2023-03-04T18:27:15.037Z,80.90
2023-03-04T18:29:44.613Z,79.53
2023-03-04T18:32:15.783Z,86.72
2023-03-04T18:34:45.257Z,89.15
2023-03-04T18:37:14.760Z,95.87
2023-03-04T18:39:44.319Z,91.50
2023-03-04T18:42:13.752Z,88.17
2023-03-04T18:44:45.873Z,93.25
2023-03-04T18:47:15.776Z,83.33
2023-03-04T18:49:46.657Z,82.62
2023-03-04T18:52:16.211Z,80.70
2023-03-04T18:54:45.823Z,82.90
2023-03-04T18:57:17.753Z,90.13
2023-03-04T18:59:53.247Z,92.95
2023-03-04T19:02:43.636Z,101.50
2023-03-04T19:05:16.192Z,98.97
2023-03-04T19:07:51.577Z,95.83
2023-03-04T19:10:27.410Z,99.67
2023-03-04T19:12:58.547Z,104.27
2023-03-04T19:15:28.875Z,95.77
2023-03-04T19:17:58.372Z,95.92
2023-03-04T19:20:27.816Z,94.70
2023-03-04T19:22:57.380Z,100.30
2023-03-04T19:25:26.866Z,94.90
2023-03-04T19:27:56.482Z,92.45
2023-03-04T19:30:46.675Z,88.53
2023-03-04T19:33:16.168Z,84.17
2023-03-04T19:35:47.608Z,81.22
2023-03-04T19:38:17.092Z,85.23
2023-03-04T19:40:46.986Z,82.53
2023-03-04T19:43:16.573Z,80.92
2023-03-04T19:45:55.320Z,79.40
2023-03-04T19:48:25.506Z,83.15
2023-03-04T19:50:55.207Z,86.32
2023-03-04T19:53:24.673Z,78.45
2023-03-04T19:55:54.177Z,76.00
2023-03-04T19:58:24.413Z,76.17
2023-03-04T20:00:56.312Z,82.78
2023-03-04T20:03:26.369Z,74.85
2023-03-04T20:06:07.420Z,78.87
2023-03-04T20:08:38.576Z,81.40
2023-03-04T20:11:13.840Z,74.35
2023-03-04T20:13:43.471Z,78.67
2023-03-04T20:16:15.455Z,74.75
2023-03-04T20:18:45.289Z,78.83
2023-03-04T20:21:14.792Z,70.17
2023-03-04T20:23:44.304Z,74.15
2023-03-04T20:26:14.865Z,67.78
2023-03-04T20:28:47.301Z,72.05
2023-03-04T20:31:26.434Z,73.20
2023-03-04T20:33:58.037Z,73.37
2023-03-04T20:36:30.475Z,74.77
2023-03-04T20:39:03.618Z,77.87
2023-03-04T20:41:34.461Z,67.80
2023-03-04T20:44:06.074Z,77.10
2023-03-04T20:46:42.851Z,70.78
2023-03-04T20:49:16.149Z,70.63
2023-03-04T20:51:47.301Z,72.85
2023-03-04T20:54:16.791Z,71.97
2023-03-04T20:56:47.870Z,71.53
2023-03-04T20:59:17.509Z,75.45
2023-03-04T21:01:51.580Z,70.80
2023-03-04T21:04:23.467Z,70.30
2023-03-04T21:06:55.076Z,66.85
2023-03-04T21:09:26.391Z,68.35
2023-03-04T21:11:56.258Z,77.78
2023-03-04T21:14:29.112Z,73.95
2023-03-04T21:17:02.338Z,75.57
2023-03-04T21:19:34.376Z,68.60
2023-03-04T21:22:06.156Z,79.62
2023-03-04T21:24:38.795Z,73.83
2023-03-04T21:27:09.276Z,74.27
2023-03-04T21:29:38.714Z,74.10
2023-03-04T21:32:24.598Z,74.22
2023-03-04T21:34:52.911Z,71.87
2023-03-04T21:37:24.012Z,68.78
2023-03-04T21:39:55.489Z,73.30
2023-03-04T21:42:25.103Z,74.60
2023-03-04T21:44:55.743Z,77.50
2023-03-04T21:47:25.240Z,78.95
2023-03-04T21:49:54.797Z,73.92
2023-03-04T21:52:25.305Z,73.90
2023-03-04T21:54:56.708Z,78.33
2023-03-04T21:57:26.137Z,66.87
2023-03-04T21:59:55.578Z,69.12
2023-03-04T22:02:25.196Z,70.92
2023-03-04T22:04:54.716Z,69.87
2023-03-04T22:07:25.456Z,73.35
2023-03-04T22:09:55.623Z,73.25
2023-03-04T22:12:25.138Z,69.62
2023-03-04T22:14:55.314Z,68.28
2023-03-04T22:17:24.792Z,75.55
2023-03-04T22:19:55.946Z,68.75
2023-03-04T22:22:25.379Z,82.00
2023-03-04T22:24:57.808Z,111.03
2023-03-04T22:27:27.550Z,93.97
2023-03-04T22:29:58.627Z,96.97
2023-03-04T22:32:28.548Z,103.85
2023-03-04T22:34:58.600Z,89.80
2023-03-04T22:37:28.144Z,86.15
2023-03-04T22:39:59.557Z,85.85
2023-03-04T22:42:29.353Z,102.32
2023-03-04T22:44:59.401Z,91.20
2023-03-04T22:47:28.964Z,92.97
2023-03-04T22:49:58.409Z,97.30
2023-03-04T22:52:28.914Z,96.15
2023-03-04T22:54:58.352Z,81.87
2023-03-04T22:57:27.777Z,86.37
2023-03-04T22:59:57.745Z,83.58
2023-03-04T23:02:27.244Z,82.78
2023-03-04T23:04:58.273Z,83.20
2023-03-04T23:07:27.683Z,74.65
2023-03-04T23:09:58.727Z,73.20
2023-03-04T23:12:28.243Z,72.55
2023-03-04T23:14:58.612Z,77.85
2023-03-04T23:17:28.268Z,73.85
2023-03-04T23:19:57.719Z,70.62
2023-03-04T23:22:27.692Z,68.33
2023-03-04T23:24:57.699Z,74.85
2023-03-04T23:27:27.357Z,85.72
2023-03-04T23:29:56.853Z,73.83
2023-03-04T23:32:26.390Z,74.00
2023-03-04T23:34:56.483Z,70.52
2023-03-04T23:37:25.984Z,67.67
2023-03-04T23:39:55.480Z,65.10
2023-03-04T23:42:25.666Z,70.10
2023-03-04T23:44:55.690Z,71.30
2023-03-04T23:47:25.243Z,76.77
2023-03-04T23:49:54.794Z,72.42
2023-03-04T23:52:24.222Z,73.20
2023-03-04T23:54:53.716Z,72.40
2023-03-04T23:57:23.296Z,69.22
2023-03-04T23:59:52.730Z,75.47
